createdAt,value
2022-11-23T00:01:27.869Z,13.91
2022-11-23T00:03:57.528Z,13.89
2022-11-23T00:06:25.749Z,13.86
2022-11-23T00:08:54.309Z,13.82
2022-11-23T00:11:24.600Z,13.77
2022-11-23T00:13:53.257Z,13.69
2022-11-23T00:16:23.175Z,13.67
2022-11-23T00:18:52.926Z,13.60
2022-11-23T00:21:21.786Z,13.53
2022-11-23T00:23:49.827Z,13.52
2022-11-23T00:26:18.728Z,13.51
2022-11-23T00:28:47.486Z,13.48
2022-11-23T00:31:19.186Z,13.45
2022-11-23T00:33:49.907Z,13.42
2022-11-23T00:36:17.508Z,13.38
2022-11-23T00:38:45.338Z,13.35
2022-11-23T00:41:15.147Z,13.32
2022-11-23T00:43:43.486Z,13.26
2022-11-23T00:46:15.164Z,13.27
2022-11-23T00:48:44.308Z,13.27
2022-11-23T00:51:14.221Z,13.27
2022-11-23T00:53:41.844Z,13.30
2022-11-23T00:56:09.022Z,13.32
2022-11-23T00:58:36.702Z,13.37
2022-11-23T01:01:07.080Z,13.39
2022-11-23T01:03:34.863Z,13.40
2022-11-23T01:06:09.581Z,13.48
2022-11-23T01:08:37.703Z,13.47
2022-11-23T01:11:07.859Z,13.45
2022-11-23T01:13:35.488Z,13.47
2022-11-23T01:16:02.681Z,13.46
2022-11-23T01:18:29.720Z,13.50
2022-11-23T01:20:57.240Z,13.51
2022-11-23T01:23:25.821Z,13.50
2022-11-23T01:25:56.796Z,13.53
2022-11-23T01:28:24.860Z,13.57
2022-11-23T01:30:52.002Z,13.56
2022-11-23T01:33:19.100Z,13.58
2022-11-23T01:35:46.220Z,14.35
2022-11-23T01:38:18.059Z,15.93
2022-11-23T01:40:47.186Z,16.48
2022-11-23T01:43:17.586Z,16.92
2022-11-23T01:45:56.542Z,17.11
2022-11-23T01:48:28.722Z,17.70
2022-11-23T01:50:59.422Z,17.94
2022-11-23T01:53:28.663Z,17.94
2022-11-23T01:56:02.368Z,18.26
2022-11-23T01:58:35.284Z,18.37
2022-11-23T02:01:03.047Z,18.45
2022-11-23T02:03:34.782Z,18.56
2022-11-23T02:06:05.003Z,18.57
2022-11-23T02:08:32.064Z,18.57
2022-11-23T02:11:00.799Z,18.63
2022-11-23T02:13:29.740Z,18.47
2022-11-23T02:15:59.183Z,18.43
2022-11-23T02:18:31.381Z,18.63
2022-11-23T02:21:01.886Z,18.64
2022-11-23T02:23:41.022Z,18.56
2022-11-23T02:26:14.890Z,18.38
2022-11-23T02:28:47.188Z,18.41
2022-11-23T02:31:14.268Z,18.44
2022-11-23T02:33:41.434Z,18.13
2022-11-23T02:36:36.228Z,18.40
2022-11-23T02:39:08.907Z,18.43
2022-11-23T02:41:40.668Z,18.36
2022-11-23T02:47:04.271Z,18.12
2022-11-23T02:49:31.819Z,17.98
2022-11-23T02:52:19.328Z,18.19
2022-11-23T02:54:46.507Z,18.28
2022-11-23T02:57:15.332Z,17.65
2022-11-23T02:59:42.548Z,17.60
2022-11-23T03:02:09.675Z,17.60
2022-11-23T03:04:36.795Z,17.66
2022-11-23T03:07:03.956Z,17.73
2022-11-23T03:09:31.385Z,17.69
2022-11-23T03:11:58.656Z,17.90
2022-11-23T03:14:27.240Z,17.71
2022-11-23T03:16:54.280Z,17.66
2022-11-23T03:19:21.307Z,17.77
2022-11-23T03:21:48.407Z,17.57
2022-11-23T03:24:15.547Z,17.83
2022-11-23T03:26:42.650Z,17.88
2022-11-23T03:29:09.870Z,17.80
2022-11-23T03:31:38.406Z,17.88
2022-11-23T03:34:05.491Z,17.70
2022-11-23T03:36:32.647Z,17.55
2022-11-23T03:38:59.728Z,17.59
2022-11-23T03:41:26.770Z,17.41
2022-11-23T03:43:54.209Z,17.44
2022-11-23T03:46:21.367Z,17.59
2022-11-23T03:48:49.888Z,17.47
2022-11-23T03:51:16.989Z,17.71
2022-11-23T03:53:44.169Z,17.62
2022-11-23T03:56:11.447Z,17.71
2022-11-23T03:58:38.595Z,17.71
2022-11-23T04:01:05.716Z,17.56
2022-11-23T04:03:32.849Z,17.57
2022-11-23T04:06:01.508Z,17.73
2022-11-23T04:08:28.670Z,17.50
2022-11-23T04:10:56.925Z,17.36
2022-11-23T04:13:24.468Z,17.32
2022-11-23T04:15:51.607Z,17.36
2022-11-23T04:18:18.690Z,17.36
2022-11-23T04:20:45.928Z,17.41
2022-11-23T04:23:14.551Z,17.46
2022-11-23T04:25:41.628Z,17.41
2022-11-23T04:28:09.127Z,17.41
2022-11-23T04:30:36.171Z,17.41
2022-11-23T04:33:03.248Z,17.48
2022-11-23T04:35:30.309Z,17.44
2022-11-23T04:37:57.450Z,17.51
2022-11-23T04:40:26.078Z,17.49
2022-11-23T04:42:56.417Z,17.48
2022-11-23T04:45:27.427Z,17.51
2022-11-23T04:47:54.487Z,17.38
2022-11-23T04:50:21.608Z,17.23
2022-11-23T04:52:48.630Z,17.13
2022-11-23T04:55:15.769Z,17.29
2022-11-23T04:57:44.308Z,17.00
2022-11-23T05:00:13.268Z,16.80
2022-11-23T05:02:40.391Z,17.10
2022-11-23T05:05:08.707Z,17.13
2022-11-23T05:07:35.827Z,17.09
2022-11-23T05:10:03.727Z,16.82
2022-11-23T05:12:30.766Z,16.72
2022-11-23T05:14:59.367Z,16.61
2022-11-23T05:17:26.626Z,16.48
2022-11-23T05:19:53.673Z,16.50
2022-11-23T05:22:20.806Z,16.36
2022-11-23T05:24:47.867Z,16.37
2022-11-23T05:27:14.963Z,16.52
2022-11-23T05:29:42.059Z,16.60
2022-11-23T05:32:10.639Z,16.32
2022-11-23T05:34:37.779Z,16.16
2022-11-23T05:37:04.859Z,16.25
2022-11-23T05:39:32.343Z,16.20
2022-11-23T05:41:59.939Z,16.13
2022-11-23T05:44:27.036Z,16.19
2022-11-23T05:46:54.078Z,16.20
2022-11-23T05:49:22.597Z,16.24
2022-11-23T05:51:49.978Z,16.29
2022-11-23T05:54:17.037Z,16.30
2022-11-23T05:56:44.093Z,16.25
2022-11-23T05:59:11.745Z,16.30
2022-11-23T06:01:38.746Z,16.23
2022-11-23T06:04:05.866Z,16.14
2022-11-23T06:06:34.367Z,15.91
2022-11-23T06:09:01.767Z,15.99
2022-11-23T06:11:28.921Z,15.91
2022-11-23T06:13:55.960Z,15.83
2022-11-23T06:16:23.061Z,16.13
2022-11-23T06:18:50.185Z,16.29
2022-11-23T06:21:17.259Z,16.17
2022-11-23T06:23:47.301Z,16.03
2022-11-23T06:26:14.420Z,15.87
2022-11-23T06:28:41.939Z,15.67
2022-11-23T06:31:10.701Z,15.71
2022-11-23T06:33:38.779Z,15.85
2022-11-23T06:36:06.681Z,16.06
2022-11-23T06:38:33.742Z,15.96
2022-11-23T06:41:03.644Z,15.95
2022-11-23T06:43:31.304Z,15.85
2022-11-23T06:45:58.980Z,16.14
2022-11-23T06:48:26.050Z,16.75
2022-11-23T06:50:53.062Z,17.03
2022-11-23T06:53:20.132Z,17.14
2022-11-23T06:55:47.247Z,17.12
2022-11-23T06:58:15.841Z,17.12
2022-11-23T07:00:43.041Z,17.15
2022-11-23T07:03:19.642Z,16.81
2022-11-23T07:05:46.948Z,16.60
2022-11-23T07:08:14.347Z,16.40
2022-11-23T07:10:41.507Z,16.64
2022-11-23T07:13:10.606Z,16.67
2022-11-23T07:15:39.752Z,16.93
2022-11-23T07:18:08.404Z,17.22
2022-11-23T07:20:35.849Z,17.57
2022-11-23T07:23:06.147Z,18.01
2022-11-23T07:25:35.566Z,18.00
2022-11-23T07:28:04.464Z,18.14
2022-11-23T07:30:33.485Z,18.30
2022-11-23T07:33:03.671Z,18.36
2022-11-23T07:35:31.830Z,18.69
2022-11-23T07:37:59.445Z,18.77
2022-11-23T07:40:26.985Z,19.01
2022-11-23T07:42:59.694Z,19.09
2022-11-23T07:45:26.791Z,19.31
2022-11-23T07:47:59.892Z,19.59
2022-11-23T07:50:29.370Z,19.59
2022-11-23T07:52:56.911Z,19.65
2022-11-23T07:55:24.403Z,19.60
2022-11-23T07:57:55.131Z,19.58
2022-11-23T08:00:24.034Z,19.68
2022-11-23T08:03:25.678Z,19.68
2022-11-23T08:05:40.946Z,19.71
2022-11-23T08:08:08.092Z,19.60
2022-11-23T08:10:40.198Z,19.68
2022-11-23T08:13:10.879Z,19.83
2022-11-23T08:15:37.998Z,19.99
2022-11-23T08:18:05.081Z,20.18
2022-11-23T08:20:32.903Z,20.19
2022-11-23T08:23:01.435Z,19.88
2022-11-23T08:25:29.442Z,20.09
2022-11-23T08:27:57.280Z,20.19
2022-11-23T08:30:27.422Z,20.26
2022-11-23T08:32:54.579Z,20.43
2022-11-23T08:35:21.677Z,20.60
2022-11-23T08:37:49.214Z,20.63
2022-11-23T08:40:24.818Z,20.59
2022-11-23T08:42:52.721Z,20.52
2022-11-23T08:45:19.955Z,20.66
2022-11-23T08:47:47.200Z,20.58
2022-11-23T08:50:14.720Z,20.09
2022-11-23T08:52:41.717Z,19.58
2022-11-23T08:55:09.457Z,19.38
2022-11-23T08:57:38.060Z,19.07
2022-11-23T09:00:07.380Z,18.87
2022-11-23T09:02:34.458Z,18.69
2022-11-23T09:05:01.616Z,18.52
2022-11-23T09:07:28.766Z,18.47
2022-11-23T09:09:55.862Z,18.47
2022-11-23T09:12:23.061Z,18.48
2022-11-23T09:14:53.418Z,18.28
2022-11-23T09:17:20.500Z,18.06
2022-11-23T09:19:49.759Z,18.11
2022-11-23T09:22:25.505Z,18.03
2022-11-23T09:24:52.898Z,17.95
2022-11-23T09:27:20.033Z,17.93
2022-11-23T09:29:47.135Z,17.87
2022-11-23T09:32:14.294Z,17.91
2022-11-23T09:34:41.533Z,18.09
2022-11-23T09:37:08.618Z,18.70
2022-11-23T09:39:37.173Z,19.12
2022-11-23T09:42:29.935Z,19.11
2022-11-23T09:45:39.510Z,19.06
2022-11-23T09:48:35.372Z,18.97
2022-11-23T09:51:11.881Z,18.95
2022-11-23T09:53:46.969Z,19.01
2022-11-23T09:56:20.365Z,18.97
2022-11-23T09:58:53.767Z,18.97
2022-11-23T10:01:21.456Z,19.04
2022-11-23T10:03:49.867Z,19.06
2022-11-23T10:06:22.927Z,18.98
2022-11-23T10:09:06.953Z,18.96
2022-11-23T10:11:51.166Z,18.92
2022-11-23T10:14:37.046Z,18.86
2022-11-23T10:17:17.506Z,18.69
2022-11-23T10:20:08.086Z,18.68
2022-11-23T10:22:48.226Z,18.60
2022-11-23T10:25:18.766Z,18.64
2022-11-23T10:27:50.014Z,18.68
2022-11-23T10:30:19.630Z,19.01
2022-11-23T10:32:55.889Z,19.29
2022-11-23T10:35:29.350Z,19.46
2022-11-23T10:38:15.206Z,19.74
2022-11-23T10:40:59.670Z,19.94
2022-11-23T10:43:35.265Z,20.03
2022-11-23T10:46:31.606Z,20.15
2022-11-23T10:49:17.416Z,20.06
2022-11-23T10:51:53.420Z,20.08
2022-11-23T10:54:26.225Z,19.86
2022-11-23T10:56:55.201Z,19.90
2022-11-23T10:59:36.741Z,19.91
2022-11-23T11:02:24.762Z,19.98
2022-11-23T11:05:14.162Z,19.83
2022-11-23T11:07:41.690Z,19.92
2022-11-23T11:10:38.009Z,19.82
2022-11-23T11:13:23.277Z,19.62
2022-11-23T11:15:58.241Z,19.74
2022-11-23T11:18:31.297Z,19.69
2022-11-23T11:21:08.197Z,19.58
2022-11-23T11:23:41.785Z,19.54
2022-11-23T11:26:21.482Z,19.43
2022-11-23T11:28:52.580Z,19.35
2022-11-23T11:31:53.516Z,19.16
2022-11-23T11:34:28.295Z,18.99
2022-11-23T11:37:04.693Z,18.82
2022-11-23T11:39:40.080Z,18.64
2022-11-23T11:42:18.299Z,18.49
2022-11-23T11:44:48.245Z,18.24
2022-11-23T11:47:31.539Z,18.07
2022-11-23T11:50:08.421Z,18.00
2022-11-23T11:52:40.870Z,17.94
2022-11-23T11:55:16.876Z,17.85
2022-11-23T11:57:50.204Z,17.77
2022-11-23T12:00:20.392Z,17.77
2022-11-23T12:03:01.334Z,17.66
2022-11-23T12:05:38.276Z,17.59
2022-11-23T12:08:14.442Z,17.56
2022-11-23T12:10:49.293Z,17.64
2022-11-23T12:13:20.121Z,17.74
2022-11-23T12:15:54.160Z,17.69
2022-11-23T12:18:46.822Z,17.78
2022-11-23T12:21:32.087Z,17.74
2022-11-23T12:24:10.800Z,17.69
2022-11-23T12:26:51.724Z,17.79
2022-11-23T12:29:39.049Z,17.80
2022-11-23T12:32:20.100Z,17.81
2022-11-23T12:35:12.902Z,17.93
2022-11-23T12:37:56.709Z,17.94
2022-11-23T12:40:45.401Z,17.90
2022-11-23T12:43:19.948Z,18.01
2022-11-23T12:46:04.740Z,17.96
2022-11-23T12:48:50.265Z,17.88
2022-11-23T12:51:29.880Z,17.60
2022-11-23T12:54:24.340Z,16.92
2022-11-23T12:57:03.365Z,16.78
2022-11-23T12:59:43.040Z,16.67
2022-11-23T13:02:33.184Z,16.52
2022-11-23T13:05:28.387Z,16.54
2022-11-23T13:08:19.676Z,16.31
2022-11-23T13:11:00.906Z,16.40
2022-11-23T13:13:45.361Z,16.06
2022-11-23T13:16:38.464Z,15.99
2022-11-23T13:19:35.188Z,15.83
2022-11-23T13:22:11.086Z,15.70
2022-11-23T13:24:59.126Z,15.79
2022-11-23T13:27:44.265Z,15.90
2022-11-23T13:30:45.560Z,16.03
2022-11-23T13:33:33.080Z,15.98
2022-11-23T13:36:10.092Z,15.85
2022-11-23T13:38:42.908Z,15.82
2022-11-23T13:41:52.706Z,15.74
2022-11-23T13:44:25.653Z,15.73
2022-11-23T13:47:20.735Z,15.69
2022-11-23T13:49:50.726Z,15.55
2022-11-23T13:52:29.711Z,15.62
2022-11-23T13:55:07.436Z,15.66
2022-11-23T13:57:36.860Z,15.53
2022-11-23T14:00:41.336Z,15.52
2022-11-23T14:03:45.698Z,15.51
2022-11-23T14:06:29.358Z,15.32
2022-11-23T14:09:05.714Z,15.29
2022-11-23T14:11:48.428Z,15.22
2022-11-23T14:14:20.368Z,15.21
2022-11-23T14:17:22.829Z,15.25
2022-11-23T14:20:14.177Z,15.20
2022-11-23T14:23:00.056Z,15.21
2022-11-23T14:25:44.473Z,15.22
2022-11-23T14:28:38.993Z,15.21
2022-11-23T14:31:22.064Z,15.20
2022-11-23T14:33:59.371Z,15.10
2022-11-23T14:36:41.690Z,15.11
2022-11-23T14:39:41.849Z,15.00
2022-11-23T14:42:17.568Z,15.01
2022-11-23T14:44:45.827Z,15.00
2022-11-23T14:47:13.085Z,15.03
2022-11-23T14:49:50.653Z,15.05
2022-11-23T14:52:22.588Z,15.02
2022-11-23T14:54:53.128Z,14.94
2022-11-23T14:57:25.189Z,14.98
2022-11-23T14:59:57.708Z,14.98
2022-11-23T15:02:34.131Z,14.94
2022-11-23T15:05:11.414Z,14.93
2022-11-23T15:07:54.551Z,14.98
2022-11-23T15:10:38.301Z,14.98
2022-11-23T15:13:18.582Z,14.99
2022-11-23T15:15:46.901Z,14.96
2022-11-23T15:18:26.394Z,14.90
2022-11-23T15:20:53.880Z,14.85
2022-11-23T15:23:22.980Z,14.86
2022-11-23T15:25:55.064Z,14.83
2022-11-23T15:28:28.160Z,14.75
2022-11-23T15:30:58.599Z,14.77
2022-11-23T15:33:27.101Z,14.79
2022-11-23T15:35:55.601Z,14.73
2022-11-23T15:38:24.304Z,14.73
2022-11-23T15:40:52.541Z,14.67
2022-11-23T15:43:20.387Z,14.66
2022-11-23T15:46:09.458Z,14.67
2022-11-23T15:48:36.624Z,14.63
2022-11-23T15:51:07.681Z,14.65
2022-11-23T15:53:49.279Z,14.67
2022-11-23T15:56:24.316Z,14.72
2022-11-23T15:58:54.080Z,14.78
2022-11-23T16:01:26.319Z,14.76
2022-11-23T16:03:55.164Z,14.78
2022-11-23T16:06:36.504Z,14.75
2022-11-23T16:09:51.204Z,14.81
2022-11-23T16:12:23.772Z,14.67
2022-11-23T16:14:51.161Z,14.57
2022-11-23T16:17:21.493Z,14.72
2022-11-23T16:19:51.026Z,14.63
2022-11-23T16:22:28.586Z,14.45
2022-11-23T16:25:04.324Z,14.56
2022-11-23T16:27:31.777Z,14.74
2022-11-23T16:30:02.895Z,14.95
2022-11-23T16:32:32.779Z,15.01
2022-11-23T16:35:15.219Z,15.00
2022-11-23T16:37:42.797Z,14.40
2022-11-23T16:40:14.435Z,13.41
2022-11-23T16:42:44.153Z,13.84
2022-11-23T16:45:11.726Z,14.31
2022-11-23T16:47:52.819Z,14.26
2022-11-23T16:50:20.780Z,14.54
2022-11-23T16:52:48.584Z,14.68
2022-11-23T16:55:17.164Z,14.59
2022-11-23T16:57:45.499Z,14.58
2022-11-23T17:00:17.007Z,14.63
2022-11-23T17:02:44.431Z,14.74
2022-11-23T17:05:15.280Z,14.82
2022-11-23T17:07:42.856Z,14.80
2022-11-23T17:10:11.331Z,14.46
2022-11-23T17:12:46.662Z,14.61
2022-11-23T17:15:22.928Z,14.62
2022-11-23T17:17:50.160Z,14.47
2022-11-23T17:20:18.963Z,14.47
2022-11-23T17:22:46.300Z,14.31
2022-11-23T17:25:15.284Z,14.45
2022-11-23T17:27:45.540Z,14.47
2022-11-23T17:30:16.486Z,14.49
2022-11-23T17:32:43.781Z,14.57
2022-11-23T17:35:11.200Z,14.66
2022-11-23T17:37:38.652Z,14.77
2022-11-23T17:40:14.088Z,14.81
2022-11-23T17:42:41.299Z,14.77
2022-11-23T17:45:11.610Z,14.72
2022-11-23T17:47:42.555Z,14.71
2022-11-23T17:50:16.248Z,14.69
2022-11-23T17:52:43.793Z,14.78
2022-11-23T17:55:12.100Z,14.63
2022-11-23T17:57:40.787Z,14.76
2022-11-23T18:00:18.016Z,14.64
2022-11-23T18:02:45.589Z,14.46
2022-11-23T18:05:17.950Z,14.62
2022-11-23T18:07:48.968Z,14.49
2022-11-23T18:10:17.393Z,14.14
2022-11-23T18:12:44.541Z,14.31
2022-11-23T18:15:13.248Z,14.41
2022-11-23T18:17:42.572Z,14.27
2022-11-23T18:20:10.968Z,14.48
2022-11-23T18:22:38.244Z,14.39
2022-11-23T18:25:07.589Z,13.44
2022-11-23T18:27:34.668Z,13.97
2022-11-23T18:30:06.528Z,14.11
2022-11-23T18:32:35.467Z,14.28
2022-11-23T18:35:02.509Z,14.25
2022-11-23T18:37:29.756Z,14.34
2022-11-23T18:40:00.462Z,14.42
2022-11-23T18:42:27.608Z,14.43
2022-11-23T18:44:54.688Z,14.20
2022-11-23T18:47:29.459Z,14.05
2022-11-23T18:50:00.822Z,14.22
2022-11-23T18:52:32.129Z,14.23
2022-11-23T18:54:59.428Z,14.32
2022-11-23T18:57:26.569Z,14.37
2022-11-23T18:59:58.401Z,14.38
2022-11-23T19:02:26.174Z,14.45
2022-11-23T19:04:53.309Z,14.45
2022-11-23T19:07:26.621Z,14.50
2022-11-23T19:09:54.492Z,14.60
2022-11-23T19:12:23.901Z,14.24
2022-11-23T19:14:53.067Z,14.54
2022-11-23T19:17:21.548Z,14.59
2022-11-23T19:19:50.705Z,14.66
2022-11-23T19:22:17.948Z,14.74
2022-11-23T19:24:46.354Z,14.83
2022-11-23T19:27:28.599Z,14.77
2022-11-23T19:29:55.968Z,14.90
2022-11-23T19:32:23.108Z,14.96
2022-11-23T19:34:50.210Z,14.87
2022-11-23T19:37:17.509Z,14.96
2022-11-23T19:39:46.793Z,15.03
2022-11-23T19:42:14.031Z,15.06
2022-11-23T19:44:41.207Z,15.10
2022-11-23T19:47:14.455Z,15.17
2022-11-23T19:49:43.650Z,15.15
2022-11-23T19:52:10.794Z,15.13
2022-11-23T19:54:37.909Z,15.11
2022-11-23T19:57:06.548Z,15.11
2022-11-23T19:59:34.047Z,15.11
2022-11-23T20:02:01.246Z,15.10
2022-11-23T20:04:28.510Z,15.09
2022-11-23T20:06:55.611Z,15.08
2022-11-23T20:09:22.809Z,17.42
2022-11-23T20:11:51.435Z,19.03
2022-11-23T20:14:20.824Z,19.94
2022-11-23T20:16:48.313Z,19.43
2022-11-23T20:19:15.448Z,18.51
2022-11-23T20:21:42.549Z,17.87
2022-11-23T20:24:12.692Z,17.35
2022-11-23T20:26:40.848Z,16.99
2022-11-23T20:29:09.235Z,16.71
2022-11-23T20:31:38.541Z,16.47
2022-11-23T20:34:07.804Z,16.20
2022-11-23T20:36:38.636Z,16.01
2022-11-23T20:39:08.026Z,15.88
2022-11-23T20:41:37.007Z,15.73
2022-11-23T20:44:06.732Z,15.63
2022-11-23T20:49:23.327Z,15.45
2022-11-23T20:51:50.468Z,15.41
2022-11-23T20:54:17.570Z,15.33
2022-11-23T20:56:44.571Z,15.32
2022-11-23T20:59:12.589Z,15.39
2022-11-23T21:01:39.945Z,15.36
2022-11-23T21:04:07.172Z,15.32
2022-11-23T21:06:39.432Z,15.32
2022-11-23T21:09:08.087Z,15.22
2022-11-23T21:11:35.410Z,15.21
2022-11-23T21:14:04.899Z,15.30
2022-11-23T21:16:32.226Z,15.32
2022-11-23T21:18:59.467Z,15.41
2022-11-23T21:21:26.715Z,15.46
2022-11-23T21:23:55.348Z,15.50
2022-11-23T21:26:22.708Z,15.52
2022-11-23T21:28:49.915Z,15.50
2022-11-23T21:31:17.521Z,15.52
2022-11-23T21:33:44.708Z,15.51
2022-11-23T21:36:12.269Z,15.46
2022-11-23T21:38:41.148Z,15.43
2022-11-23T21:41:13.609Z,15.36
2022-11-23T21:43:41.868Z,15.34
2022-11-23T21:46:11.585Z,15.29
2022-11-23T21:48:40.359Z,15.28
2022-11-23T21:51:11.087Z,15.29
2022-11-23T21:53:39.053Z,15.32
2022-11-23T21:56:11.559Z,15.33
2022-11-23T21:58:39.747Z,15.35
2022-11-23T22:01:09.171Z,15.34
2022-11-23T22:03:37.621Z,15.32
2022-11-23T22:06:06.235Z,15.35
2022-11-23T22:08:34.310Z,15.40
2022-11-23T22:11:09.014Z,15.40
2022-11-23T22:13:38.714Z,15.44
2022-11-23T22:16:16.908Z,15.45
2022-11-23T22:18:44.894Z,15.43
2022-11-23T22:21:12.297Z,15.47
2022-11-23T22:23:40.383Z,15.45
2022-11-23T22:26:09.335Z,15.45
2022-11-23T22:28:40.236Z,15.47
2022-11-23T22:31:10.355Z,15.49
2022-11-23T22:33:39.889Z,15.54
2022-11-23T22:36:09.836Z,15.59
2022-11-23T22:38:36.914Z,15.61
2022-11-23T22:41:07.095Z,15.60
2022-11-23T22:43:34.867Z,15.65
2022-11-23T22:46:05.869Z,15.67
2022-11-23T22:48:36.116Z,15.52
2022-11-23T22:51:04.499Z,15.38
2022-11-23T22:53:31.954Z,15.57
2022-11-23T22:56:01.875Z,15.45
2022-11-23T22:58:30.096Z,15.52
2022-11-23T23:00:58.035Z,15.62
2022-11-23T23:03:26.693Z,15.53
2022-11-23T23:05:54.796Z,15.42
2022-11-23T23:08:21.937Z,15.56
2022-11-23T23:10:49.455Z,15.62
2022-11-23T23:13:17.255Z,15.59
2022-11-23T23:15:44.416Z,15.38
2022-11-23T23:18:13.848Z,15.46
2022-11-23T23:20:43.175Z,15.45
2022-11-23T23:23:10.397Z,15.33
2022-11-23T23:25:37.596Z,15.42
2022-11-23T23:28:05.040Z,15.34
2022-11-23T23:30:32.218Z,15.37
2022-11-23T23:32:59.348Z,15.40
2022-11-23T23:35:26.535Z,15.32
2022-11-23T23:37:55.375Z,15.37
2022-11-23T23:40:22.518Z,15.45
2022-11-23T23:42:49.560Z,15.47
2022-11-23T23:45:16.615Z,15.54
2022-11-23T23:47:43.796Z,15.53
2022-11-23T23:50:10.896Z,15.43
2022-11-23T23:52:37.995Z,15.50
2022-11-23T23:55:07.774Z,15.48
2022-11-23T23:57:34.934Z,15.47
